• Join FlightAware (Why Join?)
  • Login
  • US Flag 
09:22AM EDT


 

Airport Tracker/Info


-or-


 

Live Flight TrackerFlight Track Log ✈ EMD21 ✈ 06-Jun-2013 ✈ KROG - KDAL

Flight Track Log - Related Links

Times and Time Zones

All times are in EDT time to prevent confusion due to time zone crossing. See the EMD21 flight status page for this flight to view local times or setup timezone preferences in your user account.

Time Position Orientation Groundspeed Altitude Reporting Facility
EDT Latitude Longitude Course Direction KTS MPH feet Rate Location/Type
02:22PM 36.0813 -94.3291 208° Southwest  Level FlightAware Approximate
02:23PM 36.0326 -94.3652 215° Southwest  Level FlightAware Approximate
02:24PM 35.9862 -94.4059 215° Southwest  Level FlightAware Approximate
02:25PM 35.9398 -94.4465 215° Southwest  Level FlightAware Approximate
02:26PM 35.8920 -94.4843 210° Southwest  Level FlightAware Approximate
02:27PM 35.8428 -94.5195 210° Southwest  Level FlightAware Approximate
02:28PM 35.7937 -94.5548 211° Southwest  Level FlightAware Approximate
02:29PM 35.7451 -94.5912 211° Southwest  Level FlightAware Approximate
02:30PM 35.6980 -94.6303 215° Southwest  Level FlightAware Approximate
02:31PM 35.6513 -94.6703 215° Southwest  Level FlightAware Approximate
02:32PM 35.6047 -94.7103 215° Southwest  Level FlightAware Approximate
02:32PM 35.7292 -94.5042 213° Southwest 231 266 14,100  Level Fort Worth Center
02:33PM 35.5580 -94.7503 215° Southwest  Level FlightAware Approximate
02:33PM 35.6800 -94.5442 213° Southwest 236 272 14,100  Level Fort Worth Center
02:34PM 35.5114 -94.7903 215° Southwest  Level FlightAware Approximate
02:34PM 35.6289 -94.5917 217° Southwest 236 272 14,000  Level Fort Worth Center
02:35PM 35.4640 -94.8289 213° Southwest  Level FlightAware Approximate
02:35PM 35.5717 -94.6422 216° Southwest 241 277 14,000  Level Fort Worth Center
02:36PM 35.4164 -94.8670 213° Southwest  Level FlightAware Approximate
02:36PM 35.5164 -94.6875 214° Southwest 241 277 14,000  Level Fort Worth Center
02:37PM 35.3688 -94.9051 213° Southwest  Level FlightAware Approximate
02:37PM 35.4631 -94.7325 215° Southwest 241 277 14,000  Level Fort Worth Center
02:38PM 35.4161 -94.7747 216° Southwest 241 277 14,000  Level Fort Worth Center
02:39PM 35.3544 -94.8250 214° Southwest 241 277 14,000  Level Fort Worth Center
02:40PM 35.2992 -94.8700 214° Southwest 241 277 14,000  Level Fort Worth Center
02:41PM 35.2436 -94.9147 213° Southwest 241 277 14,100  Climbing Fort Worth Center
02:42PM 35.1967 -94.9594 218° Southwest 241 277 14,100 -60 Level Fort Worth Center
02:43PM 35.1414 -95.0067 215° Southwest 241 277 14,000 -60 Descending Fort Worth Center
02:44PM 35.0775 -95.0567 213° Southwest 246 283 14,000  Level Fort Worth Center
02:45PM 35.0200 -95.1064 215° Southwest 252 290 14,000  Level Fort Worth Center
02:46PM 34.9644 -95.1511 213° Southwest 252 290 14,000  Level Fort Worth Center
02:47PM 34.9133 -95.1956 215° Southwest 252 290 14,000  Level Fort Worth Center
02:48PM 34.8556 -95.2425 214° Southwest 257 296 14,100  Climbing Fort Worth Center
02:49PM 34.7981 -95.2894 214° Southwest 257 296 14,000 -60 Descending Fort Worth Center
02:50PM 34.7425 -95.3364 215° Southwest 257 296 14,000  Level Fort Worth Center
02:51PM 34.6828 -95.3808 211° Southwest 257 296 14,100  Climbing Fort Worth Center
02:52PM 34.6250 -95.4325 216° Southwest 257 296 14,000  Descending Fort Worth Center
02:53PM 34.5614 -95.4844 214° Southwest 262 302 14,100  Climbing Fort Worth Center
02:54PM 34.5056 -95.5286 213° Southwest 262 302 14,100 -60 Level Fort Worth Center
02:55PM 34.4397 -95.5853 215° Southwest 252 290 14,000  Descending Fort Worth Center
02:56PM 34.3819 -95.6294 212° Southwest 258 297 14,100  Climbing Fort Worth Center
02:57PM 34.3242 -95.6783 215° Southwest 258 297 14,100 -60 Level Fort Worth Center
02:58PM 34.2644 -95.7297 215° Southwest 258 297 14,000  Descending Fort Worth Center
02:59PM 34.2044 -95.7761 213° Southwest 258 297 14,100  Climbing Fort Worth Center
03:00PM 34.1444 -95.8275 215° Southwest 258 297 14,100 -60 Level Fort Worth Center
03:01PM 34.0969 -95.8658 214° Southwest 258 297 14,000  Descending Fort Worth Center
03:02PM 34.0308 -95.9197 214° Southwest 253 291 14,100  Climbing Fort Worth Center
03:03PM 33.9708 -95.9658 213° Southwest 258 297 14,000 -420 Descending Fort Worth Center
03:04PM 33.9069 -96.0194 215° Southwest 263 303 13,300 -660 Descending Fort Worth Center
03:05PM 33.8447 -96.0681 213° Southwest 263 303 12,700 -660 Descending Fort Worth Center
03:06PM 33.7828 -96.1189 214° Southwest 268 308 12,000 -660 Descending Fort Worth Center
03:07PM 33.7247 -96.1647 213° Southwest 268 308 11,400 -840 Descending Fort Worth Center
03:08PM 33.6647 -96.2131 214° Southwest 257 296 10,400 -900 Descending Fort Worth Center
03:09PM 33.6089 -96.2586 214° Southwest 257 296 9,700 -900 Descending Fort Worth Center
03:10PM 33.5528 -96.3042 214° Southwest 251 289 8,700 -900 Descending Fort Worth Center
03:11PM 33.4969 -96.3447 211° Southwest 251 289 8,000 -840 Descending Fort Worth Center
03:12PM 33.4428 -96.3878 214° Southwest 238 274 7,100 -960 Descending Fort Worth Center
03:13PM 33.3869 -96.4233 208° Southwest 238 274 6,100 -600 Descending Fort Worth Center
03:14PM 33.3242 -96.4289 184° South 225 259 6,000 -360 Descending Fort Worth Center
03:15PM 33.2639 -96.4419 190° South 220 253 5,400 -540 Descending Fort Worth Center
03:16PM 33.1992 -96.4625 195° South 231 266 5,000 -240 Descending Fort Worth Center
03:17PM 33.1389 -96.4856 198° South 236 272 5,000  Level Fort Worth Center
03:18PM 33.0786 -96.5061 196° South 231 266 5,000  Level Fort Worth Center
03:19PM 33.0181 -96.5264 196° South 226 260 5,000  Level Fort Worth Center
03:20PM 32.9639 -96.5467 197° South 226 260 5,000  Level Fort Worth Center
03:21PM 32.8975 -96.5722 198° South 226 260 5,000 -60 Level Fort Worth Center
03:22PM 32.8453 -96.5900 196° South 226 260 4,900 -540 Descending Fort Worth Center
03:23PM 32.7828 -96.6006 188° South 221 254 4,000 -1,020 Descending Fort Worth Center
03:24PM 32.7286 -96.6083 187° South 215 247 2,900 -540 Descending Fort Worth Center
03:25PM 32.6953 -96.6556 230° Southwest 179 206 3,000  Climbing Fort Worth Center
03:26PM 32.7333 -96.7000 316° Northwest 184 212 3,000 -240 Level Dallas / Fort Worth TRACON
03:27PM 32.7667 -96.7500 308° West 157 181 2,600 -720 Descending Dallas / Fort Worth TRACON
03:28PM 32.8000 -96.7833 320° Northwest 142 163 1,600 -780 Descending Dallas / Fort Worth TRACON
03:29PM 32.8167 -96.8167 301° West 104 120 1,000 -600 Descending Dallas / Fort Worth TRACON